Time;durP1;ratioP1;P1;durP2;ratioP2;P2;SDS_P1;SDS_P2;PMS_P1;PMS_P2;Temp;Humidity;BMP_temperature;BMP_pressure;BME280_temperature;BME280_humidity;BME280_pressure;Samples;Min_cycle;Max_cycle;Signal;HPM_P1;HPM_P2
2021/04/25 00:02:05;;;;;;;5.43;3.87;;;11.50;46.00;;;;;;5056398;28;20445;-71
2021/04/25 00:04:32;;;;;;;5.87;3.97;;;11.50;46.10;;;;;;5056693;28;20452;-71
2021/04/25 00:06:58;;;;;;;7.53;4.00;;;11.40;46.00;;;;;;5056682;28;20456;-71
2021/04/25 00:09:25;;;;;;;6.27;3.97;;;11.40;46.00;;;;;;5056193;28;20821;-71
2021/04/25 00:11:51;;;;;;;11.50;4.53;;;11.40;46.30;;;;;;5056231;28;20449;-71
2021/04/25 00:14:18;;;;;;;8.70;4.73;;;11.40;46.20;;;;;;5056499;28;20452;-71
2021/04/25 00:16:44;;;;;;;6.00;4.57;;;11.40;46.30;;;;;;5056548;28;20453;-71
2021/04/25 00:19:10;;;;;;;9.00;4.50;;;11.30;46.30;;;;;;5056312;28;21005;-71
2021/04/25 00:21:37;;;;;;;10.50;4.17;;;11.30;46.40;;;;;;5056382;28;20471;-71
2021/04/25 00:24:04;;;;;;;8.97;4.30;;;11.30;46.50;;;;;;5056027;28;20942;-71
2021/04/25 00:26:30;;;;;;;5.87;4.20;;;11.30;46.60;;;;;;5056023;28;20946;-71
2021/04/25 00:28:57;;;;;;;8.50;4.67;;;11.20;46.70;;;;;;5056091;28;20461;-71
2021/04/25 00:31:23;;;;;;;9.60;4.63;;;11.20;46.80;;;;;;5056291;28;20445;-71
2021/04/25 00:33:49;;;;;;;9.13;4.30;;;11.20;46.80;;;;;;5056254;28;20429;-71
2021/04/25 00:36:16;;;;;;;7.97;4.57;;;11.10;46.80;;;;;;5056148;28;20456;-71
2021/04/25 00:38:43;;;;;;;6.90;4.00;;;11.10;47.00;;;;;;5056010;28;20468;-71
2021/04/25 00:41:10;;;;;;;6.27;3.80;;;11.10;47.20;;;;;;5055682;28;20438;-71
2021/04/25 00:43:36;;;;;;;9.37;4.30;;;11.00;47.20;;;;;;5055903;28;20461;-71
2021/04/25 00:46:03;;;;;;;7.10;4.50;;;11.00;47.40;;;;;;5056117;28;20456;-71
2021/04/25 00:48:29;;;;;;;6.40;4.40;;;11.00;47.70;;;;;;5055503;28;20998;-71
2021/04/25 00:50:55;;;;;;;4.90;4.33;;;10.90;47.70;;;;;;5055272;28;20997;-71
2021/04/25 00:53:23;;;;;;;9.30;4.57;;;10.90;47.70;;;;;;5055638;28;20445;-71
2021/04/25 00:55:51;;;;;;;7.43;4.40;;;10.90;47.70;;;;;;5055652;28;20460;-71
2021/04/25 00:58:17;;;;;;;6.50;4.60;;;10.90;47.80;;;;;;5055636;28;20461;-71
2021/04/25 01:00:44;;;;;;;8.10;4.90;;;10.80;48.00;;;;;;5055632;28;20430;-71
2021/04/25 01:03:10;;;;;;;8.33;5.37;;;10.80;48.00;;;;;;5055516;28;20450;-71
2021/04/25 01:05:37;;;;;;;8.70;5.63;;;10.80;48.00;;;;;;5055477;28;20814;-71
2021/04/25 01:08:04;;;;;;;11.40;5.43;;;10.70;48.10;;;;;;5055371;28;20445;-71
2021/04/25 01:10:31;;;;;;;6.20;5.00;;;10.70;48.20;;;;;;5055307;28;20477;-71
2021/04/25 01:12:59;;;;;;;11.47;5.50;;;10.70;48.30;;;;;;5055407;28;20461;-71
2021/04/25 01:15:26;;;;;;;6.70;4.50;;;10.60;48.40;;;;;;5055254;28;20465;-71
2021/04/25 01:17:52;;;;;;;11.20;5.37;;;10.60;48.60;;;;;;5055173;28;20445;-71
2021/04/25 01:20:21;;;;;;;8.30;5.60;;;10.50;48.60;;;;;;5055161;28;20808;-71
2021/04/25 01:22:48;;;;;;;6.90;4.60;;;10.50;48.70;;;;;;5055078;28;20809;-71
2021/04/25 01:25:16;;;;;;;12.03;6.77;;;10.50;49.30;;;;;;5055105;28;20544;-71
2021/04/25 01:27:42;;;;;;;10.20;5.50;;;10.40;48.90;;;;;;5055148;28;20509;-71
2021/04/25 01:30:12;;;;;;;7.17;5.53;;;10.40;49.00;;;;;;5054729;28;20481;-71
2021/04/25 01:32:40;;;;;;;8.30;5.00;;;10.40;49.20;;;;;;5055126;28;20472;-71
2021/04/25 01:35:08;;;;;;;9.37;5.43;;;10.30;49.10;;;;;;5054913;28;20458;-71
2021/04/25 01:37:34;;;;;;;9.97;5.47;;;10.30;49.40;;;;;;5054945;28;20437;-71
2021/04/25 01:40:02;;;;;;;9.57;5.20;;;10.30;49.40;;;;;;5054922;28;20467;-71
2021/04/25 01:42:28;;;;;;;10.30;5.57;;;10.20;49.40;;;;;;5054904;28;20457;-71
2021/04/25 01:44:54;;;;;;;7.13;4.80;;;10.20;49.50;;;;;;5054661;28;20521;-71
2021/04/25 01:47:20;;;;;;;9.50;5.03;;;10.20;49.70;;;;;;5054935;28;20453;-71
2021/04/25 01:49:47;;;;;;;7.37;5.33;;;10.10;49.70;;;;;;5054703;28;20962;-71
2021/04/25 01:52:13;;;;;;;5.90;5.00;;;10.10;49.80;;;;;;5054798;28;20505;-71
2021/04/25 01:54:39;;;;;;;9.73;5.57;;;10.00;49.90;;;;;;5054973;28;20446;-71
2021/04/25 01:57:07;;;;;;;8.30;4.73;;;10.00;50.00;;;;;;5054396;28;20450;-71
2021/04/25 01:59:33;;;;;;;7.90;5.50;;;10.00;50.10;;;;;;5053884;28;20468;-71
2021/04/25 02:02:00;;;;;;;8.93;5.47;;;9.90;51.00;;;;;;5055473;28;20965;-71
2021/04/25 02:04:26;;;;;;;11.20;5.80;;;9.90;51.30;;;;;;5054563;28;20442;-71
2021/04/25 02:06:52;;;;;;;9.60;5.80;;;9.90;51.60;;;;;;5055340;28;20453;-71
2021/04/25 02:09:19;;;;;;;8.57;5.90;;;9.80;51.70;;;;;;5054463;28;20492;-71
2021/04/25 02:11:45;;;;;;;7.57;5.70;;;9.80;51.70;;;;;;5054302;28;20480;-71
2021/04/25 02:14:12;;;;;;;8.10;5.70;;;9.80;51.90;;;;;;5054285;28;20454;-71
2021/04/25 02:16:38;;;;;;;12.53;6.07;;;9.80;51.90;;;;;;5054224;28;20450;-71
2021/04/25 02:19:05;;;;;;;8.10;5.90;;;9.80;51.90;;;;;;5053845;28;20523;-71
2021/04/25 02:21:31;;;;;;;8.33;5.20;;;9.80;51.90;;;;;;5053845;28;20445;-71
2021/04/25 02:23:57;;;;;;;8.07;5.50;;;9.80;51.90;;;;;;5054344;28;20449;-71
2021/04/25 02:26:24;;;;;;;11.60;6.70;;;9.70;52.00;;;;;;5053716;28;20446;-71
2021/04/25 02:28:51;;;;;;;9.47;5.50;;;9.70;52.00;;;;;;5053926;28;20465;-71
2021/04/25 02:31:18;;;;;;;7.20;5.57;;;9.70;51.90;;;;;;5053932;28;20527;-71
2021/04/25 02:33:44;;;;;;;8.93;5.40;;;9.70;52.00;;;;;;5053625;28;20565;-71
2021/04/25 02:36:10;;;;;;;11.20;6.40;;;9.60;51.80;;;;;;5053889;28;20452;-71
2021/04/25 02:38:36;;;;;;;9.57;5.90;;;9.60;52.00;;;;;;5054386;28;20488;-71
2021/04/25 02:41:03;;;;;;;8.63;6.37;;;9.50;52.00;;;;;;5053816;28;20451;-71
2021/04/25 02:43:29;;;;;;;8.60;6.20;;;9.50;52.30;;;;;;5053448;28;20500;-71
2021/04/25 02:45:56;;;;;;;9.80;6.33;;;9.50;52.50;;;;;;5054185;28;20782;-69
2021/04/25 02:48:23;;;;;;;7.50;6.17;;;9.40;52.40;;;;;;5053553;28;20829;-69
2021/04/25 02:50:49;;;;;;;9.70;6.57;;;9.40;52.40;;;;;;5053201;28;20485;-69
2021/04/25 02:53:16;;;;;;;11.03;6.07;;;9.40;52.40;;;;;;5053517;28;20454;-69
2021/04/25 02:55:42;;;;;;;9.53;6.50;;;9.30;52.40;;;;;;5053490;28;20441;-69
2021/04/25 02:58:10;;;;;;;9.47;5.70;;;9.30;52.40;;;;;;5053397;28;20504;-69
2021/04/25 03:00:37;;;;;;;8.83;6.50;;;9.30;52.60;;;;;;5053082;28;20450;-69
2021/04/25 03:03:04;;;;;;;10.20;6.63;;;9.20;52.60;;;;;;5053363;28;20447;-69
2021/04/25 03:05:31;;;;;;;7.23;5.77;;;9.20;52.60;;;;;;5053324;28;20456;-69
2021/04/25 03:07:57;;;;;;;10.07;6.53;;;9.10;52.70;;;;;;5053229;28;20441;-69
2021/04/25 03:10:25;;;;;;;10.00;6.90;;;9.10;52.80;;;;;;5053209;28;20478;-69
2021/04/25 03:12:51;;;;;;;11.43;7.10;;;9.10;52.90;;;;;;5052665;28;20445;-69
2021/04/25 03:15:19;;;;;;;7.93;6.37;;;9.10;53.00;;;;;;5053269;28;20495;-69
2021/04/25 03:17:46;;;;;;;10.13;7.23;;;9.00;53.10;;;;;;5053325;28;20457;-69
2021/04/25 03:20:14;;;;;;;9.07;7.03;;;9.00;53.30;;;;;;5053253;28;20518;-69
2021/04/25 03:22:41;;;;;;;9.47;5.90;;;9.00;53.40;;;;;;5053299;28;20805;-69
2021/04/25 03:25:09;;;;;;;10.77;5.47;;;8.90;53.40;;;;;;5053201;28;20446;-69
2021/04/25 03:27:35;;;;;;;9.97;6.70;;;8.90;53.50;;;;;;5053154;28;20453;-69
2021/04/25 03:30:03;;;;;;;9.87;6.40;;;8.90;53.60;;;;;;5053050;28;20826;-69
2021/04/25 03:32:29;;;;;;;15.50;6.77;;;8.90;53.70;;;;;;5052870;28;20499;-69
2021/04/25 03:34:55;;;;;;;8.50;6.70;;;8.80;53.50;;;;;;5053149;28;20442;-69
2021/04/25 03:37:21;;;;;;;8.43;6.47;;;8.80;53.50;;;;;;5053094;28;20430;-69
2021/04/25 03:39:48;;;;;;;10.13;6.57;;;8.80;53.60;;;;;;5052969;28;20469;-69
2021/04/25 03:42:15;;;;;;;13.77;7.20;;;8.70;53.70;;;;;;5053086;28;20450;-69
2021/04/25 03:44:41;;;;;;;8.67;5.90;;;8.60;53.60;;;;;;5053139;28;20919;-69
2021/04/25 03:47:08;;;;;;;14.77;7.10;;;8.60;53.80;;;;;;5052907;28;20454;-69
2021/04/25 03:49:34;;;;;;;10.47;6.70;;;8.60;54.00;;;;;;5052637;28;20495;-69
2021/04/25 03:52:01;;;;;;;11.70;6.67;;;8.60;54.00;;;;;;5052909;28;20468;-69
2021/04/25 03:54:27;;;;;;;14.97;7.03;;;8.50;54.10;;;;;;5053000;28;20449;-69
2021/04/25 03:56:54;;;;;;;10.60;6.80;;;8.50;54.20;;;;;;5052939;28;20471;-69
2021/04/25 03:59:20;;;;;;;12.07;7.10;;;8.50;54.80;;;;;;5052874;28;20473;-69
2021/04/25 04:01:46;;;;;;;11.73;6.30;;;8.50;54.20;;;;;;5052897;28;20452;-69
2021/04/25 04:04:13;;;;;;;9.60;5.80;;;8.40;54.10;;;;;;5052909;28;20441;-69
2021/04/25 04:06:39;;;;;;;12.13;7.37;;;8.40;54.10;;;;;;5052934;28;20840;-69
2021/04/25 04:09:05;;;;;;;8.30;6.10;;;8.30;54.20;;;;;;5052754;28;20472;-69
2021/04/25 04:11:32;;;;;;;8.73;6.80;;;8.30;54.30;;;;;;5052753;28;20539;-68
2021/04/25 04:13:59;;;;;;;11.70;7.30;;;8.30;54.40;;;;;;5052866;28;20453;-68
2021/04/25 04:16:26;;;;;;;8.73;6.23;;;8.30;55.00;;;;;;5052505;28;21002;-68
2021/04/25 04:18:52;;;;;;;9.70;6.70;;;8.30;54.40;;;;;;5052683;28;20526;-69
2021/04/25 04:21:19;;;;;;;9.67;6.33;;;8.20;54.40;;;;;;5052730;28;20453;-69
2021/04/25 04:23:45;;;;;;;11.03;6.53;;;8.20;54.60;;;;;;5054721;28;20452;-69
2021/04/25 04:26:11;;;;;;;10.17;6.57;;;8.10;54.90;;;;;;5056346;28;20563;-69
2021/04/25 04:28:38;;;;;;;10.37;7.40;;;8.10;54.90;;;;;;5056307;28;20829;-69
2021/04/25 04:31:05;;;;;;;9.23;6.03;;;8.10;55.30;;;;;;5056203;28;20477;-69
2021/04/25 04:33:31;;;;;;;11.53;6.77;;;8.00;55.30;;;;;;5055870;28;20961;-69
2021/04/25 04:35:57;;;;;;;8.37;6.60;;;8.00;55.70;;;;;;5055804;28;20931;-69
2021/04/25 04:38:24;;;;;;;14.03;8.23;;;8.00;55.90;;;;;;5056025;28;20466;-69
2021/04/25 04:40:50;;;;;;;13.90;8.90;;;8.00;56.20;;;;;;5056047;28;20854;-69
2021/04/25 04:43:16;;;;;;;14.43;7.27;;;8.00;56.30;;;;;;5056010;28;20444;-69
2021/04/25 04:45:43;;;;;;;10.53;7.10;;;8.00;56.40;;;;;;5055675;28;20948;-69
2021/04/25 04:48:10;;;;;;;12.27;7.93;;;8.00;56.70;;;;;;5055824;28;20519;-69
2021/04/25 04:50:36;;;;;;;10.60;7.13;;;8.10;56.90;;;;;;5055940;28;20995;-69
2021/04/25 04:53:02;;;;;;;8.97;6.13;;;8.10;57.10;;;;;;5055855;28;20437;-69
2021/04/25 04:55:29;;;;;;;10.80;7.30;;;8.10;57.00;;;;;;5055738;28;20447;-69
2021/04/25 04:57:55;;;;;;;10.67;6.63;;;8.10;57.00;;;;;;5055623;28;20447;-70
2021/04/25 05:00:21;;;;;;;8.93;5.97;;;8.10;57.00;;;;;;5055696;28;20448;-69
2021/04/25 05:02:47;;;;;;;10.80;7.03;;;8.10;57.00;;;;;;5055610;28;20487;-69
2021/04/25 05:05:15;;;;;;;9.27;6.93;;;8.10;57.00;;;;;;5055587;28;20829;-69
2021/04/25 05:07:41;;;;;;;10.40;6.70;;;8.10;57.10;;;;;;5055556;28;20445;-69
2021/04/25 05:10:08;;;;;;;10.27;7.10;;;8.10;57.40;;;;;;5054994;28;20483;-69
2021/04/25 05:12:35;;;;;;;11.83;7.67;;;8.10;57.60;;;;;;5055445;28;20445;-69
2021/04/25 05:15:01;;;;;;;9.43;6.23;;;8.10;57.90;;;;;;5055078;28;20956;-69
2021/04/25 05:17:27;;;;;;;14.10;8.07;;;8.10;58.20;;;;;;5055046;28;20931;-69
2021/04/25 05:19:54;;;;;;;10.80;7.80;;;8.20;58.30;;;;;;5055261;28;20465;-69
2021/04/25 05:22:21;;;;;;;10.07;7.10;;;8.20;58.40;;;;;;5055413;28;20449;-69
2021/04/25 05:24:47;;;;;;;12.33;7.00;;;8.20;58.60;;;;;;5055208;28;20856;-69
2021/04/25 05:27:13;;;;;;;10.47;7.53;;;8.20;58.60;;;;;;5055187;28;20821;-69
2021/04/25 05:29:39;;;;;;;10.40;7.30;;;8.30;58.70;;;;;;5054947;28;20489;-69
2021/04/25 05:32:06;;;;;;;11.27;8.10;;;8.30;59.20;;;;;;5055113;28;20430;-69
2021/04/25 05:34:33;;;;;;;15.30;8.17;;;8.40;59.30;;;;;;5054084;28;20452;-69
2021/04/25 05:36:59;;;;;;;10.20;8.50;;;8.50;59.30;;;;;;5054922;28;20541;-69
2021/04/25 05:39:26;;;;;;;12.10;8.10;;;8.50;59.20;;;;;;5054891;28;20873;-69
2021/04/25 05:41:52;;;;;;;9.63;6.90;;;8.60;59.60;;;;;;5054934;28;20445;-69
2021/04/25 05:44:19;;;;;;;13.17;7.70;;;8.60;60.00;;;;;;5054970;28;20446;-69
2021/04/25 05:46:45;;;;;;;10.07;7.90;;;8.70;59.50;;;;;;5054848;28;20430;-69
2021/04/25 05:49:11;;;;;;;8.83;6.93;;;8.80;59.70;;;;;;5054726;28;20477;-69
2021/04/25 05:51:38;;;;;;;10.53;7.33;;;8.90;59.90;;;;;;5054289;28;20489;-69
2021/04/25 05:54:04;;;;;;;12.70;8.30;;;9.00;60.20;;;;;;5054681;28;20475;-69
2021/04/25 05:56:31;;;;;;;10.87;7.33;;;9.00;59.60;;;;;;5054541;28;20499;-67
2021/04/25 05:58:58;;;;;;;10.83;7.43;;;9.10;59.40;;;;;;5054494;28;20465;-66
2021/04/25 06:01:24;;;;;;;12.53;7.23;;;9.20;58.70;;;;;;5054518;28;20476;-66
2021/04/25 06:03:51;;;;;;;11.07;6.60;;;9.30;58.50;;;;;;5054451;28;20446;-66
2021/04/25 06:06:17;;;;;;;9.57;6.60;;;9.30;58.20;;;;;;5054161;28;20992;-66
2021/04/25 06:08:43;;;;;;;9.77;6.20;;;9.40;57.80;;;;;;5054315;28;20504;-67
2021/04/25 06:11:10;;;;;;;11.27;6.83;;;9.50;57.60;;;;;;5054247;28;20508;-67
2021/04/25 06:13:37;;;;;;;9.73;5.53;;;9.60;57.70;;;;;;5054136;28;20446;-67
2021/04/25 06:16:04;;;;;;;8.33;6.33;;;9.60;57.30;;;;;;5053970;28;20445;-67
2021/04/25 06:18:30;;;;;;;11.03;5.80;;;9.70;56.90;;;;;;5053857;28;20491;-67
2021/04/25 06:20:57;;;;;;;6.70;5.60;;;9.70;56.00;;;;;;5053928;28;20453;-67
2021/04/25 06:23:23;;;;;;;7.80;6.40;;;9.70;56.10;;;;;;5053657;28;20578;-67
2021/04/25 06:25:49;;;;;;;7.00;6.30;;;9.80;55.90;;;;;;5054421;28;20771;-67
2021/04/25 06:28:16;;;;;;;10.33;8.20;;;9.80;54.30;;;;;;5053862;28;20480;-67
2021/04/25 06:30:43;;;;;;;10.63;7.80;;;9.90;53.90;;;;;;5053718;28;20477;-67
2021/04/25 06:33:09;;;;;;;10.60;7.30;;;10.00;52.60;;;;;;5053834;28;20461;-67
2021/04/25 06:35:35;;;;;;;9.77;7.10;;;10.00;51.00;;;;;;5053504;28;20817;-66
2021/04/25 06:38:34;;;;;;;11.37;9.67;;;9.90;52.80;;;;;;5053460;28;20425;-67
2021/04/25 06:41:01;;;;;;;15.63;10.07;;;10.00;51.10;;;;;;5053708;28;20524;-66
2021/04/25 06:43:27;;;;;;;10.90;8.93;;;10.10;50.20;;;;;;5053806;28;20495;-66
2021/04/25 06:45:54;;;;;;;11.47;10.20;;;10.30;50.60;;;;;;5053227;28;20438;-66
2021/04/25 06:48:20;;;;;;;11.33;10.07;;;10.40;50.60;;;;;;5053886;28;20464;-66
2021/04/25 06:50:46;;;;;;;15.00;10.83;;;10.40;49.80;;;;;;5053199;28;20489;-66
2021/04/25 06:53:13;;;;;;;14.47;11.90;;;10.50;49.50;;;;;;5053366;28;20441;-66
2021/04/25 06:55:39;;;;;;;15.40;13.90;;;10.50;49.50;;;;;;5053629;28;20429;-66
2021/04/25 06:58:05;;;;;;;12.87;11.47;;;10.70;49.50;;;;;;5053655;28;20457;-67
2021/04/25 07:00:40;;;;;;;11.33;10.10;;;10.70;48.80;;;;;;5054834;28;20444;-66
2021/04/25 07:03:08;;;;;;;13.23;11.90;;;10.60;48.70;;;;;;5053595;28;20468;-66
2021/04/25 07:05:34;;;;;;;13.40;12.00;;;10.70;48.60;;;;;;5053480;28;20441;-66
2021/04/25 07:08:00;;;;;;;14.37;10.80;;;10.80;47.90;;;;;;5053063;28;20939;-67
2021/04/25 07:10:26;;;;;;;13.93;12.20;;;10.90;47.80;;;;;;5053338;28;20474;-66
2021/04/25 07:12:54;;;;;;;12.40;11.30;;;10.90;47.40;;;;;;5053423;28;20449;-66
2021/04/25 07:15:21;;;;;;;13.60;12.30;;;11.10;47.70;;;;;;5053440;28;20440;-65
2021/04/25 07:17:47;;;;;;;13.90;12.60;;;11.20;47.90;;;;;;5053359;28;20459;-65
2021/04/25 07:20:14;;;;;;;13.43;12.03;;;11.30;47.80;;;;;;5053244;28;20461;-65
2021/04/25 07:22:41;;;;;;;12.13;10.87;;;11.50;47.00;;;;;;5053297;28;20449;-65
2021/04/25 07:25:09;;;;;;;11.57;10.47;;;11.60;46.50;;;;;;5053273;28;20541;-66
2021/04/25 07:27:35;;;;;;;13.70;10.57;;;11.80;46.00;;;;;;5053496;28;20445;-65
2021/04/25 07:30:02;;;;;;;12.90;11.50;;;11.90;45.20;;;;;;5054121;28;20481;-66
2021/04/25 07:32:28;;;;;;;13.23;11.13;;;12.10;45.20;;;;;;5053194;28;20449;-66
2021/04/25 07:34:54;;;;;;;13.13;11.73;;;12.20;45.30;;;;;;5053260;28;20453;-66
2021/04/25 07:37:21;;;;;;;15.10;13.10;;;12.40;45.20;;;;;;5053376;28;20452;-66
2021/04/25 07:39:47;;;;;;;15.13;13.53;;;12.60;45.70;;;;;;5052977;28;20462;-66
2021/04/25 07:42:15;;;;;;;13.47;12.07;;;12.70;44.20;;;;;;5052959;28;20592;-66
2021/04/25 07:44:43;;;;;;;15.00;12.33;;;12.80;44.20;;;;;;5052634;28;20532;-66
2021/04/25 07:47:09;;;;;;;14.40;13.00;;;13.00;44.00;;;;;;5052949;28;20814;-66
2021/04/25 07:49:36;;;;;;;14.47;13.10;;;13.20;43.60;;;;;;5052710;28;20469;-66
2021/04/25 07:52:02;;;;;;;13.53;11.70;;;13.40;42.90;;;;;;5052625;28;20465;-67
2021/04/25 07:54:30;;;;;;;13.53;12.10;;;13.70;42.60;;;;;;5052974;28;20453;-65
2021/04/25 07:56:57;;;;;;;13.00;11.70;;;13.80;41.90;;;;;;5052683;28;20796;-66
2021/04/25 07:59:23;;;;;;;14.00;12.50;;;13.90;41.50;;;;;;5055919;28;20477;-67
2021/04/25 08:01:50;;;;;;;12.27;11.07;;;14.00;41.10;;;;;;5056544;28;20903;-70
2021/04/25 08:04:16;;;;;;;12.27;11.20;;;14.10;40.80;;;;;;5056572;28;20449;-66
2021/04/25 08:06:43;;;;;;;14.40;12.93;;;14.20;40.70;;;;;;5056771;28;20475;-66
2021/04/25 08:09:10;;;;;;;12.40;11.20;;;14.20;40.70;;;;;;5056677;28;20488;-64
2021/04/25 08:11:37;;;;;;;13.30;12.10;;;14.20;40.10;;;;;;5056283;28;20465;-67
2021/04/25 08:14:04;;;;;;;15.27;12.73;;;14.30;40.30;;;;;;5056587;28;20437;-64
2021/04/25 08:16:31;;;;;;;14.77;13.33;;;14.40;40.00;;;;;;5056845;28;20441;-66
2021/04/25 08:18:57;;;;;;;13.90;12.60;;;14.40;40.00;;;;;;5056515;28;20469;-66
2021/04/25 08:21:24;;;;;;;12.97;11.67;;;14.50;39.80;;;;;;5056606;28;20524;-66
2021/04/25 08:23:51;;;;;;;12.57;11.43;;;14.70;39.80;;;;;;5056628;28;20502;-65
2021/04/25 08:26:17;;;;;;;11.90;10.80;;;14.90;39.70;;;;;;5056612;28;20430;-65
2021/04/25 08:28:44;;;;;;;11.30;10.30;;;15.20;39.30;;;;;;5056444;28;20473;-67
2021/04/25 08:31:10;;;;;;;11.80;10.60;;;15.30;38.20;;;;;;5056221;28;20481;-67
2021/04/25 08:33:36;;;;;;;13.77;12.50;;;15.60;38.10;;;;;;5056122;28;20922;-67
2021/04/25 08:36:05;;;;;;;12.90;11.20;;;15.80;38.00;;;;;;5056307;28;20825;-67
2021/04/25 08:38:32;;;;;;;12.50;11.40;;;16.20;37.50;;;;;;5056538;28;20473;-67
2021/04/25 08:41:01;;;;;;;12.30;11.23;;;16.40;36.40;;;;;;5056651;28;20441;-68
2021/04/25 08:43:29;;;;;;;13.27;12.17;;;16.70;35.90;;;;;;5056308;28;20448;-68
2021/04/25 08:45:58;;;;;;;11.27;10.33;;;16.90;35.60;;;;;;5056096;28;20442;-68
2021/04/25 08:48:39;;;;;;;11.40;10.37;;;17.20;35.40;;;;;;5055880;28;20548;-68
2021/04/25 08:51:05;;;;;;;9.47;8.63;;;17.50;34.70;;;;;;5055662;28;20588;-68
2021/04/25 08:53:32;;;;;;;10.50;9.67;;;17.70;34.10;;;;;;5056091;28;20448;-67
2021/04/25 08:55:58;;;;;;;10.40;9.50;;;17.80;33.50;;;;;;5055935;28;20737;-68
2021/04/25 08:58:24;;;;;;;9.40;8.60;;;17.90;33.30;;;;;;5055696;28;20461;-69
2021/04/25 09:00:51;;;;;;;10.40;9.43;;;18.00;33.60;;;;;;5056152;28;20434;-68
2021/04/25 09:03:18;;;;;;;10.30;9.40;;;18.10;32.30;;;;;;5055842;28;20542;-68
2021/04/25 09:05:44;;;;;;;11.33;8.90;;;18.10;33.40;;;;;;5056244;28;20472;-68
2021/04/25 09:08:11;;;;;;;10.73;9.10;;;18.40;33.50;;;;;;5055854;28;20476;-68
2021/04/25 09:10:40;;;;;;;13.30;9.17;;;18.60;32.60;;;;;;5055629;28;20488;-68
2021/04/25 09:13:15;;;;;;;11.20;10.10;;;18.90;32.30;;;;;;5055766;28;20452;-68
2021/04/25 09:15:41;;;;;;;13.00;11.80;;;19.20;31.80;;;;;;5055228;28;20491;-68
2021/04/25 09:18:08;;;;;;;11.97;10.97;;;19.10;30.30;;;;;;5055670;28;20434;-69
2021/04/25 09:20:38;;;;;;;12.87;11.70;;;18.60;30.40;;;;;;5058029;28;20791;-69
2021/04/25 09:23:05;;;;;;;11.80;10.70;;;18.10;31.50;;;;;;5055843;28;20467;-69
2021/04/25 09:25:31;;;;;;;13.87;10.30;;;17.90;32.90;;;;;;5055131;28;20957;-68
2021/04/25 09:28:09;;;;;;;11.33;10.33;;;17.90;34.30;;;;;;5055176;28;20528;-70
2021/04/25 09:30:35;;;;;;;10.00;9.10;;;18.20;34.50;;;;;;5055088;28;20465;-69
2021/04/25 09:33:03;;;;;;;10.90;9.33;;;18.50;33.70;;;;;;5055269;28;20445;-68
2021/04/25 09:35:29;;;;;;;10.03;9.23;;;18.80;33.10;;;;;;5055933;28;20456;-69
2021/04/25 09:37:57;;;;;;;10.57;9.60;;;19.10;32.00;;;;;;5055437;28;20524;-69
2021/04/25 09:40:25;;;;;;;10.80;9.70;;;19.40;31.50;;;;;;5056218;28;20442;-68
2021/04/25 09:43:01;;;;;;;10.40;9.30;;;19.60;30.30;;;;;;5055901;28;20528;-69
2021/04/25 09:45:31;;;;;;;9.47;8.27;;;19.70;31.30;;;;;;5054416;28;20895;-68
2021/04/25 09:47:58;;;;;;;9.73;8.20;;;19.70;29.90;;;;;;5054647;28;20450;-68
2021/04/25 09:50:24;;;;;;;8.57;7.87;;;19.60;31.10;;;;;;5054285;28;20473;-70
2021/04/25 09:52:51;;;;;;;8.00;6.90;;;19.70;31.30;;;;;;5054652;28;20479;-68
2021/04/25 09:55:27;;;;;;;8.27;7.47;;;19.60;30.70;;;;;;5054434;28;20926;-68
2021/04/25 09:57:55;;;;;;;7.13;6.43;;;20.00;31.10;;;;;;5055164;28;20464;-68
2021/04/25 10:00:22;;;;;;;6.10;5.60;;;20.20;30.50;;;;;;5054411;28;20469;-69
2021/04/25 10:02:57;;;;;;;7.60;6.20;;;20.50;29.70;;;;;;5054462;28;20453;-70
2021/04/25 10:05:24;;;;;;;5.90;5.40;;;20.80;29.20;;;;;;5054357;28;20443;-68
2021/04/25 10:07:50;;;;;;;6.33;5.77;;;21.00;29.00;;;;;;5054499;28;20452;-70
2021/04/25 10:10:18;;;;;;;7.03;6.30;;;21.20;28.80;;;;;;5054352;28;20485;-68
2021/04/25 10:12:46;;;;;;;6.10;5.60;;;21.40;28.50;;;;;;5054444;28;20475;-70
2021/04/25 10:15:13;;;;;;;7.20;5.77;;;21.70;28.40;;;;;;5054308;28;20445;-69
2021/04/25 10:17:42;;;;;;;8.20;5.90;;;22.00;28.00;;;;;;5054396;28;20453;-71
2021/04/25 10:20:10;;;;;;;8.33;5.70;;;22.30;27.20;;;;;;5055452;28;20560;-70
2021/04/25 10:22:42;;;;;;;6.97;5.60;;;22.50;27.50;;;;;;5055217;28;20469;-71
2021/04/25 10:25:11;;;;;;;9.60;5.60;;;22.80;26.90;;;;;;5054494;28;20792;-71
2021/04/25 10:27:42;;;;;;;4.93;4.53;;;23.20;26.60;;;;;;5054323;28;20476;-70
2021/04/25 10:30:12;;;;;;;5.63;5.17;;;23.70;26.10;;;;;;5053907;28;20493;-70
2021/04/25 10:32:43;;;;;;;5.07;4.57;;;24.20;25.70;;;;;;5054196;28;20437;-70
2021/04/25 10:35:14;;;;;;;5.87;5.37;;;24.70;25.50;;;;;;5053761;28;20437;-71
2021/04/25 10:37:41;;;;;;;6.33;5.63;;;25.30;24.30;;;;;;5053982;28;20418;-71
2021/04/25 10:40:20;;;;;;;6.50;4.80;;;25.70;23.40;;;;;;5053264;28;20440;-72
2021/04/25 10:43:06;;;;;;;6.67;5.00;;;26.20;23.60;;;;;;5053865;28;20282;-71
2021/04/25 10:45:35;;;;;;;4.90;4.50;;;26.70;22.90;;;;;;5054101;28;20433;-71
2021/04/25 10:48:34;;;;;;;4.73;4.30;;;27.10;22.00;;;;;;5053320;28;20450;-72
2021/04/25 10:51:08;;;;;;;5.00;4.10;;;27.50;21.70;;;;;;5053329;28;20845;-71
2021/04/25 10:53:37;;;;;;;5.77;4.77;;;28.00;21.50;;;;;;5053731;28;20438;-71
2021/04/25 10:56:34;;;;;;;4.50;4.00;;;28.50;21.00;;;;;;5054151;28;20469;-71
2021/04/25 10:59:28;;;;;;;5.40;3.70;;;29.10;20.60;;;;;;5053529;28;20518;-72
2021/04/25 11:01:56;;;;;;;5.17;4.33;;;29.70;19.70;;;;;;5053866;28;20436;-71
2021/04/25 11:04:59;;;;;;;4.47;3.77;;;29.90;19.60;;;;;;5053547;28;20528;-72
2021/04/25 11:07:40;;;;;;;5.60;3.53;;;30.30;19.00;;;;;;5054319;28;20465;-72
2021/04/25 11:10:07;;;;;;;5.63;4.50;;;30.70;18.60;;;;;;5053286;28;20465;-71
2021/04/25 11:12:38;;;;;;;5.10;4.70;;;30.80;18.50;;;;;;5053375;28;20450;-71
2021/04/25 11:15:06;;;;;;;5.30;4.17;;;31.10;18.60;;;;;;5053387;28;20446;-71
2021/04/25 11:17:33;;;;;;;5.73;4.77;;;31.30;17.90;;;;;;5053417;28;20442;-70
2021/04/25 11:20:00;;;;;;;6.13;4.80;;;31.60;18.30;;;;;;5053342;28;20465;-71
2021/04/25 11:22:42;;;;;;;24.87;22.73;;;31.80;17.80;;;;;;5053494;28;20430;-71
2021/04/25 11:25:32;;;;;;;11.13;8.90;;;32.20;17.30;;;;;;5053268;28;20448;-70
2021/04/25 11:27:58;;;;;;;15.40;11.00;;;32.30;16.70;;;;;;5053283;28;20430;-70
2021/04/25 11:30:39;;;;;;;23.70;21.73;;;32.20;17.00;;;;;;5053189;28;20496;-71
2021/04/25 11:33:32;;;;;;;122.30;112.20;;;31.90;16.80;;;;;;5055338;28;20486;-71
2021/04/25 11:36:38;;;;;;;18.87;17.27;;;31.90;17.10;;;;;;5057382;28;20461;-71
2021/04/25 11:39:06;;;;;;;9.53;8.57;;;32.20;17.90;;;;;;5057109;28;21008;-71
2021/04/25 11:41:33;;;;;;;15.13;13.80;;;32.40;17.20;;;;;;5056959;28;20437;-71
2021/04/25 11:43:59;;;;;;;38.57;34.90;;;32.60;17.70;;;;;;5057314;28;20451;-71
2021/04/25 11:46:33;;;;;;;22.90;20.30;;;32.80;15.90;;;;;;5056933;28;20451;-71
2021/04/25 11:49:01;;;;;;;5.73;5.23;;;32.70;16.90;;;;;;5057031;28;20532;-71
2021/04/25 11:51:28;;;;;;;5.47;4.97;;;33.00;17.30;;;;;;5055775;28;20499;-71
2021/04/25 11:53:54;;;;;;;5.43;4.93;;;33.40;17.00;;;;;;5055650;28;20456;-71
2021/04/25 11:56:26;;;;;;;6.47;5.40;;;33.80;16.50;;;;;;5055299;28;20938;-71
2021/04/25 11:59:04;;;;;;;5.43;4.93;;;34.20;16.10;;;;;;5055529;28;20460;-72
2021/04/25 12:01:30;;;;;;;5.97;5.37;;;34.50;15.60;;;;;;5055607;28;20440;-71
2021/04/25 12:03:56;;;;;;;6.10;5.50;;;34.80;15.40;;;;;;5055514;28;20464;-71
2021/04/25 12:06:24;;;;;;;5.47;4.90;;;35.00;15.30;;;;;;5055460;28;20453;-71
2021/04/25 12:08:51;;;;;;;6.83;5.20;;;35.30;15.10;;;;;;5055107;28;20555;-71
2021/04/25 12:11:25;;;;;;;5.03;4.57;;;35.50;14.70;;;;;;5055270;28;20519;-72
2021/04/25 12:13:52;;;;;;;5.30;4.80;;;35.90;15.00;;;;;;5055358;28;20452;-71
2021/04/25 12:16:20;;;;;;;6.10;4.90;;;36.10;14.50;;;;;;5055163;28;20939;-71
2021/04/25 12:18:46;;;;;;;5.70;5.20;;;36.30;14.20;;;;;;5055245;28;20468;-72
2021/04/25 12:21:18;;;;;;;6.07;5.53;;;36.50;13.90;;;;;;5055618;28;20422;-72
2021/04/25 12:23:48;;;;;;;6.43;4.50;;;36.60;12.90;;;;;;5055209;28;20598;-71
2021/04/25 12:26:16;;;;;;;5.20;4.73;;;36.30;13.50;;;;;;5055122;28;20451;-71
2021/04/25 12:28:45;;;;;;;4.50;3.80;;;36.30;14.00;;;;;;5054827;28;20851;-72
2021/04/25 12:31:11;;;;;;;4.60;4.20;;;36.40;14.10;;;;;;5055057;28;20477;-72
2021/04/25 12:33:39;;;;;;;5.67;4.60;;;36.80;14.00;;;;;;5055372;28;20438;-72
2021/04/25 12:36:07;;;;;;;8.07;4.60;;;37.10;14.00;;;;;;5055088;28;20213;-72
2021/04/25 12:38:36;;;;;;;6.75;4.53;;;37.60;13.30;;;;;;5055139;28;20471;-72
2021/04/25 12:41:05;;;;;;;4.90;4.40;;;37.90;13.10;;;;;;5054716;28;20292;-72
2021/04/25 12:43:32;;;;;;;5.78;4.03;;;38.10;12.00;;;;;;5054459;28;20206;-72
2021/04/25 12:46:00;;;;;;;5.35;4.35;;;38.10;12.70;;;;;;5054674;28;20569;-71
2021/04/25 12:48:32;;;;;;;5.10;4.68;;;38.20;12.80;;;;;;5054787;28;20269;-72